• Join FlightAware (Why Join?)
  • Login
  • US Flag 
03:29PM EDT


 

Airport Tracker/Info


-or-


 

Live Flight TrackerFlight Track Log ✈ GLA61C ✈ 24-Apr-2013 ✈ KCEZ - KDEN

Flight Track Log - Related Links

Times and Time Zones

All times are in EDT time to prevent confusion due to time zone crossing. See the GLA61C flight status page for this flight to view local times or setup timezone preferences in your user account.

Time Position Orientation Groundspeed Altitude Reporting Facility
EDT Latitude Longitude Course Direction KTS MPH feet Rate Location/Type
08:04AM 37.3450 -108.5933 48° Northeast 167 192 8,600  Level Denver Center
08:05AM 37.3817 -108.5650 32° Northeast 162 186 10,900 1,980 Climbing Denver Center
08:06AM 37.5539 -108.2712 46° Northeast  Level FlightAware Approximate
08:06AM 37.4156 -108.5250 43° Northeast 165 190 12,600  Level Denver Center
08:07AM 37.6055 -108.2028 48° Northeast  Level FlightAware Approximate
08:07AM 37.4556 -108.4581 53° Northeast 189 217 14,600  Level Denver Center
08:08AM 37.6560 -108.1330 48° Northeast  Level FlightAware Approximate
08:09AM 37.7065 -108.0632 48° Northeast  Level FlightAware Approximate
08:09AM 37.4942 -108.4003 50° Northeast 212 244 16,400  Level Denver Center
08:10AM 37.7569 -107.9932 48° Northeast  Level FlightAware Approximate
08:10AM 37.5306 -108.3406 52° Northeast 220 253 17,900  Level Denver Center
08:11AM 37.5786 -108.2633 52° Northeast 237 273 19,700 1,620 Climbing Denver Center
08:12AM 37.6206 -108.1944 52° Northeast 253 291 21,200 1,380 Climbing Denver Center
08:13AM 37.6669 -108.1272 49° Northeast 263 303 22,500 1,200 Climbing Denver Center
08:14AM 37.7147 -108.0631 47° Northeast 263 303 23,700 1,020 Climbing Denver Center
08:15AM 37.7692 -107.9781 51° Northeast 276 318 24,600 600 Climbing Denver Center
08:16AM 37.8147 -107.8967 55° Northeast 293 337 25,000 180 Climbing Denver Center
08:17AM 37.8658 -107.8053 55° Northeast 323 372 25,100 -300 Climbing Denver Center
08:18AM 37.9403 -107.6928 50° Northeast 327 376 24,400 -600 Descending Denver Center
08:19AM 37.9992 -107.6222 43° Northeast 310 357 23,900 -660 Descending Denver Center
08:20AM 38.0747 -107.5542 35° Northeast 299 344 23,100 -300 Descending Denver Center
08:22AM 38.1947 -107.4372 37° Northeast 297 342 23,000 -60 Descending Denver Center
08:23AM 38.2528 -107.3414 52° Northeast 311 358 23,000  Level Denver Center
08:24AM 38.2986 -107.2511 57° Northeast 315 362 23,000  Level Denver Center
08:25AM 38.3600 -107.1703 46° Northeast 307 353 23,000  Level Denver Center
08:26AM 38.4164 -107.0856 50° Northeast 311 358 23,100  Climbing Denver Center
08:27AM 38.4664 -106.9969 54° Northeast 316 364 23,000  Descending Denver Center
08:28AM 38.4947 -106.8864 72° East 331 381 23,100  Climbing Denver Center
08:29AM 38.5447 -106.7911 56° Northeast 324 373 23,000 -60 Descending Denver Center
08:30AM 38.5883 -106.6900 61° Northeast 324 373 23,000  Level Denver Center
08:31AM 38.6189 -106.5797 70° East 328 377 23,000  Level Denver Center
08:32AM 38.6500 -106.4661 71° East 334 384 23,000  Level Denver Center
08:33AM 38.6767 -106.3511 73° East 337 388 23,000  Level Denver Center
08:34AM 38.7128 -106.2442 67° East 329 379 23,000  Level Denver Center
08:35AM 38.7497 -106.1197 69° East 330 380 23,000  Level Denver Center
08:36AM 38.7842 -106.0194 66° East 322 371 23,000  Level Denver Center
08:37AM 38.8328 -105.9333 54° Northeast 314 361 23,100 -480 Climbing Denver Center
08:38AM 38.8911 -105.8458 49° Northeast 311 358 22,100 -1,140 Descending Denver Center
08:39AM 38.9531 -105.7569 48° Northeast 317 365 20,900 -1,140 Descending Denver Center
08:40AM 39.0058 -105.6750 50° Northeast 312 359 19,900 -1,140 Descending Denver Center
08:41AM 39.0683 -105.5894 47° Northeast 297 342 18,600 -1,140 Descending Denver Center
08:42AM 39.1197 -105.5136 49° Northeast 292 336 17,700 -1,080 Descending Denver Center
08:43AM 39.1803 -105.4350 45° Northeast 300 345 16,500 -960 Descending Denver Center
08:44AM 39.2247 -105.3739 47° Northeast 283 326 15,800 -900 Descending Denver Center
08:45AM 39.2861 -105.2872 48° Northeast 265 305 14,700 -960 Descending Denver Center
08:46AM 39.3319 -105.2142 51° Northeast 259 298 13,900 -300 Descending Denver Center
08:47AM 39.3825 -105.1517 44° Northeast 252 290 14,100 60 Climbing Denver Center
08:48AM 39.4394 -105.0908 40° Northeast 265 305 14,100 -540 Level Denver Center
08:49AM 39.4944 -105.0289 41° Northeast 262 302 13,100 -600 Descending Denver Center
08:50AM 39.5550 -104.9653 39° Northeast 262 302 13,000  Descending Denver Center
08:51AM 39.6108 -104.9039 40° Northeast 266 306 13,100  Climbing Denver Center
08:52AM 39.6717 -104.8492 35° Northeast 266 306 13,100 -300 Level Denver Center
08:53AM 39.7297 -104.7900 38° Northeast 267 307 12,600 -780 Descending Denver Center
08:54AM 39.7644 -104.7036 62° Northeast 266 306 11,600 -780 Descending Denver Center
08:55AM 39.7625 -104.6103 92° East 256 295 11,100 -360 Descending Denver Center
08:56AM 39.7647 -104.5128 88° East 270 311 10,900 -1,320 Descending Denver Center
08:57AM 39.7944 -104.4364 63° Northeast 242 278 8,500 -1,380 Descending Denver Center
08:58AM 39.8586 -104.4419 356° North 225 259 8,100 -480 Descending Denver Center
08:59AM 39.8833 -104.4833 308° West 191 220 7,700 -900 Descending Denver TRACON
09:00AM 39.8833 -104.5500 270° West 167 192 6,500 -1,020 Descending Denver TRACON
09:01AM 39.8833 -104.6000 270° West 125 144 5,700 -540 Descending Denver TRACON
09:02AM 39.8769 -104.6433 259° West 92 106 5,400 -240 Descending Denver Center
09:04AM 39.8500 -104.6667 270° West  Level FlightAware Approximate
09:11AM 39.8617 -104.6732 270° West  Level Estimated
09:12AM 39.8617 -104.6732 270° West  Level Estimated
09:13AM 39.8617 -104.6732 270° West  Level Estimated